sensor_id;sensor_type;location;lat;lon;timestamp;temperature;humidity
34201;DHT22;20469;55.638;37.670;2022-08-19T00:01:54;22.10;56.00
34201;DHT22;20469;55.638;37.670;2022-08-19T00:04:27;22.00;56.80
34201;DHT22;20469;55.638;37.670;2022-08-19T00:06:56;22.10;57.20
34201;DHT22;20469;55.638;37.670;2022-08-19T00:09:23;22.10;57.90
34201;DHT22;20469;55.638;37.670;2022-08-19T00:11:52;22.00;58.30
34201;DHT22;20469;55.638;37.670;2022-08-19T00:14:19;22.00;59.40
34201;DHT22;20469;55.638;37.670;2022-08-19T00:16:50;22.00;59.80
34201;DHT22;20469;55.638;37.670;2022-08-19T00:19:22;21.90;59.90
34201;DHT22;20469;55.638;37.670;2022-08-19T00:21:50;21.90;61.80
34201;DHT22;20469;55.638;37.670;2022-08-19T00:24:18;21.90;62.20
34201;DHT22;20469;55.638;37.670;2022-08-19T00:26:46;21.90;61.60
34201;DHT22;20469;55.638;37.670;2022-08-19T00:29:15;21.90;60.70
34201;DHT22;20469;55.638;37.670;2022-08-19T00:31:44;21.90;60.80
34201;DHT22;20469;55.638;37.670;2022-08-19T00:34:12;21.80;62.50
34201;DHT22;20469;55.638;37.670;2022-08-19T00:36:41;21.80;61.80
34201;DHT22;20469;55.638;37.670;2022-08-19T00:39:10;21.80;62.10
34201;DHT22;20469;55.638;37.670;2022-08-19T00:41:38;21.90;61.70
34201;DHT22;20469;55.638;37.670;2022-08-19T00:44:15;21.90;61.30
34201;DHT22;20469;55.638;37.670;2022-08-19T00:46:44;21.80;62.50
34201;DHT22;20469;55.638;37.670;2022-08-19T00:49:40;21.80;61.80
34201;DHT22;20469;55.638;37.670;2022-08-19T00:52:27;21.80;61.60
34201;DHT22;20469;55.638;37.670;2022-08-19T00:54:57;21.70;60.50
34201;DHT22;20469;55.638;37.670;2022-08-19T00:57:30;21.80;60.20
34201;DHT22;20469;55.638;37.670;2022-08-19T01:00:01;21.70;60.40
34201;DHT22;20469;55.638;37.670;2022-08-19T01:02:32;21.60;60.30
34201;DHT22;20469;55.638;37.670;2022-08-19T01:05:03;21.60;60.80
34201;DHT22;20469;55.638;37.670;2022-08-19T01:07:32;21.60;60.30
34201;DHT22;20469;55.638;37.670;2022-08-19T01:10:09;21.60;60.60
34201;DHT22;20469;55.638;37.670;2022-08-19T01:12:38;21.60;60.70
34201;DHT22;20469;55.638;37.670;2022-08-19T01:15:07;21.50;61.60
34201;DHT22;20469;55.638;37.670;2022-08-19T01:17:38;21.50;62.20
34201;DHT22;20469;55.638;37.670;2022-08-19T01:20:07;21.50;62.70
34201;DHT22;20469;55.638;37.670;2022-08-19T01:22:42;21.40;63.10
34201;DHT22;20469;55.638;37.670;2022-08-19T01:25:16;21.40;63.10
34201;DHT22;20469;55.638;37.670;2022-08-19T01:27:47;21.30;63.20
34201;DHT22;20469;55.638;37.670;2022-08-19T01:30:19;21.30;63.50
34201;DHT22;20469;55.638;37.670;2022-08-19T01:32:47;21.30;64.30
34201;DHT22;20469;55.638;37.670;2022-08-19T01:35:14;21.40;64.10
34201;DHT22;20469;55.638;37.670;2022-08-19T01:37:54;21.30;64.60
34201;DHT22;20469;55.638;37.670;2022-08-19T01:40:24;21.20;65.00
34201;DHT22;20469;55.638;37.670;2022-08-19T01:42:56;21.20;65.20
34201;DHT22;20469;55.638;37.670;2022-08-19T01:45:25;21.20;65.60
34201;DHT22;20469;55.638;37.670;2022-08-19T01:47:54;21.20;65.10
34201;DHT22;20469;55.638;37.670;2022-08-19T01:50:30;21.20;64.40
34201;DHT22;20469;55.638;37.670;2022-08-19T01:52:58;21.10;64.20
34201;DHT22;20469;55.638;37.670;2022-08-19T01:55:34;21.10;64.30
34201;DHT22;20469;55.638;37.670;2022-08-19T01:58:19;21.10;65.50
34201;DHT22;20469;55.638;37.670;2022-08-19T02:00:48;21.00;65.50
34201;DHT22;20469;55.638;37.670;2022-08-19T02:03:16;21.10;65.70
34201;DHT22;20469;55.638;37.670;2022-08-19T02:05:44;21.00;64.40
34201;DHT22;20469;55.638;37.670;2022-08-19T02:08:12;20.90;64.60
34201;DHT22;20469;55.638;37.670;2022-08-19T02:10:43;21.00;65.00
34201;DHT22;20469;55.638;37.670;2022-08-19T02:13:11;20.90;64.70
34201;DHT22;20469;55.638;37.670;2022-08-19T02:15:59;20.80;65.90
34201;DHT22;20469;55.638;37.670;2022-08-19T02:18:29;20.90;66.80
34201;DHT22;20469;55.638;37.670;2022-08-19T02:20:57;20.90;66.90
34201;DHT22;20469;55.638;37.670;2022-08-19T02:23:24;20.90;67.20
34201;DHT22;20469;55.638;37.670;2022-08-19T02:25:51;20.80;67.90
34201;DHT22;20469;55.638;37.670;2022-08-19T02:28:19;20.80;68.80
34201;DHT22;20469;55.638;37.670;2022-08-19T02:30:47;20.80;69.00
34201;DHT22;20469;55.638;37.670;2022-08-19T02:33:14;20.80;69.20
34201;DHT22;20469;55.638;37.670;2022-08-19T02:35:45;20.80;68.80
34201;DHT22;20469;55.638;37.670;2022-08-19T02:38:12;20.90;69.40
34201;DHT22;20469;55.638;37.670;2022-08-19T02:41:00;20.80;69.40
34201;DHT22;20469;55.638;37.670;2022-08-19T02:43:29;20.90;69.10
34201;DHT22;20469;55.638;37.670;2022-08-19T02:46:00;20.80;69.90
34201;DHT22;20469;55.638;37.670;2022-08-19T02:48:28;20.90;69.60
34201;DHT22;20469;55.638;37.670;2022-08-19T02:51:05;20.90;69.30
34201;DHT22;20469;55.638;37.670;2022-08-19T02:53:32;20.80;69.50
34201;DHT22;20469;55.638;37.670;2022-08-19T02:56:00;20.80;69.30
34201;DHT22;20469;55.638;37.670;2022-08-19T02:58:27;20.70;69.50
34201;DHT22;20469;55.638;37.670;2022-08-19T03:00:56;20.70;71.10
34201;DHT22;20469;55.638;37.670;2022-08-19T03:03:24;20.90;72.30
34201;DHT22;20469;55.638;37.670;2022-08-19T03:05:51;20.90;71.40
34201;DHT22;20469;55.638;37.670;2022-08-19T03:08:23;20.80;70.20
34201;DHT22;20469;55.638;37.670;2022-08-19T03:10:51;20.80;71.30
34201;DHT22;20469;55.638;37.670;2022-08-19T03:13:19;20.70;70.80
34201;DHT22;20469;55.638;37.670;2022-08-19T03:15:48;20.70;71.30
34201;DHT22;20469;55.638;37.670;2022-08-19T03:18:16;20.60;71.50
34201;DHT22;20469;55.638;37.670;2022-08-19T03:20:45;20.60;73.20
34201;DHT22;20469;55.638;37.670;2022-08-19T03:23:15;20.60;73.20
34201;DHT22;20469;55.638;37.670;2022-08-19T03:25:46;20.70;73.90
34201;DHT22;20469;55.638;37.670;2022-08-19T03:28:29;20.60;73.60
34201;DHT22;20469;55.638;37.670;2022-08-19T03:31:01;20.60;74.30
34201;DHT22;20469;55.638;37.670;2022-08-19T03:33:30;20.50;76.20
34201;DHT22;20469;55.638;37.670;2022-08-19T03:36:08;20.60;76.10
34201;DHT22;20469;55.638;37.670;2022-08-19T03:38:38;20.50;77.40
34201;DHT22;20469;55.638;37.670;2022-08-19T03:41:07;20.60;77.50
34201;DHT22;20469;55.638;37.670;2022-08-19T03:43:37;20.60;78.30
34201;DHT22;20469;55.638;37.670;2022-08-19T03:46:07;20.60;78.20
34201;DHT22;20469;55.638;37.670;2022-08-19T03:48:35;20.60;79.20
34201;DHT22;20469;55.638;37.670;2022-08-19T03:51:03;20.70;78.80
34201;DHT22;20469;55.638;37.670;2022-08-19T03:53:31;20.70;78.20
34201;DHT22;20469;55.638;37.670;2022-08-19T03:55:58;20.80;77.60
34201;DHT22;20469;55.638;37.670;2022-08-19T03:58:29;20.70;78.60
34201;DHT22;20469;55.638;37.670;2022-08-19T04:00:57;20.70;78.40
34201;DHT22;20469;55.638;37.670;2022-08-19T04:03:25;20.70;80.00
34201;DHT22;20469;55.638;37.670;2022-08-19T04:05:53;20.70;80.40
34201;DHT22;20469;55.638;37.670;2022-08-19T04:08:20;20.80;79.90
34201;DHT22;20469;55.638;37.670;2022-08-19T04:10:49;20.70;80.80
34201;DHT22;20469;55.638;37.670;2022-08-19T04:13:17;20.70;82.40
34201;DHT22;20469;55.638;37.670;2022-08-19T04:15:45;20.80;81.00
34201;DHT22;20469;55.638;37.670;2022-08-19T04:18:13;20.80;82.00
34201;DHT22;20469;55.638;37.670;2022-08-19T04:20:46;20.90;82.40
34201;DHT22;20469;55.638;37.670;2022-08-19T04:23:14;20.90;82.40
34201;DHT22;20469;55.638;37.670;2022-08-19T04:25:43;21.20;83.80
34201;DHT22;20469;55.638;37.670;2022-08-19T04:28:12;21.20;80.20
34201;DHT22;20469;55.638;37.670;2022-08-19T04:30:54;21.30;78.60
34201;DHT22;20469;55.638;37.670;2022-08-19T04:33:24;21.50;79.10
34201;DHT22;20469;55.638;37.670;2022-08-19T04:35:54;21.50;78.30
34201;DHT22;20469;55.638;37.670;2022-08-19T04:38:21;21.40;75.10
34201;DHT22;20469;55.638;37.670;2022-08-19T04:40:51;21.30;76.60
34201;DHT22;20469;55.638;37.670;2022-08-19T04:43:38;21.40;76.40
34201;DHT22;20469;55.638;37.670;2022-08-19T04:46:11;21.50;75.60
34201;DHT22;20469;55.638;37.670;2022-08-19T04:48:59;21.40;77.00
34201;DHT22;20469;55.638;37.670;2022-08-19T04:51:36;21.30;78.50
34201;DHT22;20469;55.638;37.670;2022-08-19T04:54:03;21.50;78.10
34201;DHT22;20469;55.638;37.670;2022-08-19T04:56:31;21.40;76.90
34201;DHT22;20469;55.638;37.670;2022-08-19T04:58:59;21.40;77.60
34201;DHT22;20469;55.638;37.670;2022-08-19T05:01:32;21.30;80.30
34201;DHT22;20469;55.638;37.670;2022-08-19T05:04:00;21.60;79.80
34201;DHT22;20469;55.638;37.670;2022-08-19T05:06:28;21.90;78.50
34201;DHT22;20469;55.638;37.670;2022-08-19T05:08:58;21.70;75.90
34201;DHT22;20469;55.638;37.670;2022-08-19T05:11:31;21.80;75.30
34201;DHT22;20469;55.638;37.670;2022-08-19T05:13:58;21.90;79.60
34201;DHT22;20469;55.638;37.670;2022-08-19T05:16:26;21.90;75.30
34201;DHT22;20469;55.638;37.670;2022-08-19T05:18:55;21.80;74.50
34201;DHT22;20469;55.638;37.670;2022-08-19T05:21:42;21.90;75.90
34201;DHT22;20469;55.638;37.670;2022-08-19T05:24:29;22.10;74.70
34201;DHT22;20469;55.638;37.670;2022-08-19T05:26:57;22.10;74.40
34201;DHT22;20469;55.638;37.670;2022-08-19T05:29:26;22.20;72.40
34201;DHT22;20469;55.638;37.670;2022-08-19T05:32:04;22.10;74.10
34201;DHT22;20469;55.638;37.670;2022-08-19T05:34:32;22.00;74.60
34201;DHT22;20469;55.638;37.670;2022-08-19T05:37:01;22.20;74.50
34201;DHT22;20469;55.638;37.670;2022-08-19T05:39:31;22.60;75.40
34201;DHT22;20469;55.638;37.670;2022-08-19T05:42:03;22.90;70.50
34201;DHT22;20469;55.638;37.670;2022-08-19T05:44:34;22.70;68.30
34201;DHT22;20469;55.638;37.670;2022-08-19T05:47:04;22.70;70.50
34201;DHT22;20469;55.638;37.670;2022-08-19T05:49:33;22.80;70.80
34201;DHT22;20469;55.638;37.670;2022-08-19T05:52:13;23.00;66.70
34201;DHT22;20469;55.638;37.670;2022-08-19T05:54:46;22.60;66.50
34201;DHT22;20469;55.638;37.670;2022-08-19T05:57:18;22.50;68.70
34201;DHT22;20469;55.638;37.670;2022-08-19T05:59:46;22.60;69.50
34201;DHT22;20469;55.638;37.670;2022-08-19T06:02:24;22.70;69.90
34201;DHT22;20469;55.638;37.670;2022-08-19T06:04:51;23.40;68.00
34201;DHT22;20469;55.638;37.670;2022-08-19T06:07:19;23.40;64.70
34201;DHT22;20469;55.638;37.670;2022-08-19T06:09:46;23.10;64.90
34201;DHT22;20469;55.638;37.670;2022-08-19T06:12:25;23.00;67.10
34201;DHT22;20469;55.638;37.670;2022-08-19T06:14:55;23.10;65.20
34201;DHT22;20469;55.638;37.670;2022-08-19T06:17:29;23.20;66.50
34201;DHT22;20469;55.638;37.670;2022-08-19T06:19:58;23.20;65.20
34201;DHT22;20469;55.638;37.670;2022-08-19T06:22:27;23.20;64.60
34201;DHT22;20469;55.638;37.670;2022-08-19T06:24:55;23.20;64.10
34201;DHT22;20469;55.638;37.670;2022-08-19T06:27:22;23.10;66.10
34201;DHT22;20469;55.638;37.670;2022-08-19T06:29:50;23.40;68.90
34201;DHT22;20469;55.638;37.670;2022-08-19T06:32:17;23.30;64.10
34201;DHT22;20469;55.638;37.670;2022-08-19T06:34:46;23.20;65.20
34201;DHT22;20469;55.638;37.670;2022-08-19T06:37:14;23.10;65.30
34201;DHT22;20469;55.638;37.670;2022-08-19T06:39:43;23.00;65.90
34201;DHT22;20469;55.638;37.670;2022-08-19T06:42:11;23.10;66.80
34201;DHT22;20469;55.638;37.670;2022-08-19T06:44:46;23.20;65.90
34201;DHT22;20469;55.638;37.670;2022-08-19T06:47:18;23.40;64.30
34201;DHT22;20469;55.638;37.670;2022-08-19T06:49:54;23.30;64.10
34201;DHT22;20469;55.638;37.670;2022-08-19T06:52:31;23.50;63.70
34201;DHT22;20469;55.638;37.670;2022-08-19T06:55:02;23.60;60.60
34201;DHT22;20469;55.638;37.670;2022-08-19T06:57:33;23.30;61.00
34201;DHT22;20469;55.638;37.670;2022-08-19T07:00:00;23.60;60.10
34201;DHT22;20469;55.638;37.670;2022-08-19T07:04:57;23.80;60.60
34201;DHT22;20469;55.638;37.670;2022-08-19T07:07:25;23.80;58.50
34201;DHT22;20469;55.638;37.670;2022-08-19T07:09:52;23.90;58.10
34201;DHT22;20469;55.638;37.670;2022-08-19T07:12:31;24.10;56.70
34201;DHT22;20469;55.638;37.670;2022-08-19T07:15:07;24.20;56.60
34201;DHT22;20469;55.638;37.670;2022-08-19T07:17:39;24.20;56.10
34201;DHT22;20469;55.638;37.670;2022-08-19T07:20:08;24.70;61.30
34201;DHT22;20469;55.638;37.670;2022-08-19T07:22:38;24.60;55.10
34201;DHT22;20469;55.638;37.670;2022-08-19T07:25:08;24.60;59.00
34201;DHT22;20469;55.638;37.670;2022-08-19T07:27:36;24.70;53.60
34201;DHT22;20469;55.638;37.670;2022-08-19T07:30:07;24.90;51.70
34201;DHT22;20469;55.638;37.670;2022-08-19T07:32:38;24.60;51.20
34201;DHT22;20469;55.638;37.670;2022-08-19T07:35:06;24.50;49.50
34201;DHT22;20469;55.638;37.670;2022-08-19T07:37:34;24.50;49.70
34201;DHT22;20469;55.638;37.670;2022-08-19T07:40:13;24.80;49.80
34201;DHT22;20469;55.638;37.670;2022-08-19T07:42:41;25.00;48.40
34201;DHT22;20469;55.638;37.670;2022-08-19T07:45:10;24.70;47.80
34201;DHT22;20469;55.638;37.670;2022-08-19T07:47:37;25.00;48.20
34201;DHT22;20469;55.638;37.670;2022-08-19T07:50:17;25.10;47.10
34201;DHT22;20469;55.638;37.670;2022-08-19T07:52:45;24.90;46.00
34201;DHT22;20469;55.638;37.670;2022-08-19T07:55:17;24.90;47.00
34201;DHT22;20469;55.638;37.670;2022-08-19T07:58:04;25.20;46.10
34201;DHT22;20469;55.638;37.670;2022-08-19T08:00:32;25.00;46.50
34201;DHT22;20469;55.638;37.670;2022-08-19T08:02:59;25.30;46.00
34201;DHT22;20469;55.638;37.670;2022-08-19T08:05:26;25.30;46.70
34201;DHT22;20469;55.638;37.670;2022-08-19T08:08:13;25.30;46.40
34201;DHT22;20469;55.638;37.670;2022-08-19T08:10:59;25.90;45.50
34201;DHT22;20469;55.638;37.670;2022-08-19T08:13:27;25.20;45.10
34201;DHT22;20469;55.638;37.670;2022-08-19T08:15:55;25.00;46.60
34201;DHT22;20469;55.638;37.670;2022-08-19T08:18:24;25.10;47.70
34201;DHT22;20469;55.638;37.670;2022-08-19T08:20:54;25.60;48.80
34201;DHT22;20469;55.638;37.670;2022-08-19T08:23:22;25.30;46.20
34201;DHT22;20469;55.638;37.670;2022-08-19T08:25:54;24.90;47.50
34201;DHT22;20469;55.638;37.670;2022-08-19T08:28:22;24.70;48.10
34201;DHT22;20469;55.638;37.670;2022-08-19T08:30:50;25.00;47.10
34201;DHT22;20469;55.638;37.670;2022-08-19T08:33:23;25.30;50.60
34201;DHT22;20469;55.638;37.670;2022-08-19T08:36:07;25.00;44.90
34201;DHT22;20469;55.638;37.670;2022-08-19T08:38:35;25.00;44.30
34201;DHT22;20469;55.638;37.670;2022-08-19T08:41:16;25.00;45.00
34201;DHT22;20469;55.638;37.670;2022-08-19T08:43:49;25.10;43.70
34201;DHT22;20469;55.638;37.670;2022-08-19T08:52:04;26.20;38.60
34201;DHT22;20469;55.638;37.670;2022-08-19T08:54:47;26.00;38.30
34201;DHT22;20469;55.638;37.670;2022-08-19T08:57:29;25.80;38.20
34201;DHT22;20469;55.638;37.670;2022-08-19T09:00:20;26.10;37.40
34201;DHT22;20469;55.638;37.670;2022-08-19T09:02:48;26.60;35.50
34201;DHT22;20469;55.638;37.670;2022-08-19T09:05:18;27.20;33.00
34201;DHT22;20469;55.638;37.670;2022-08-19T09:08:08;27.00;32.20
34201;DHT22;20469;55.638;37.670;2022-08-19T09:19:03;27.50;35.60
34201;DHT22;20469;55.638;37.670;2022-08-19T09:21:32;27.50;35.90
34201;DHT22;20469;55.638;37.670;2022-08-19T09:24:01;27.20;35.50
34201;DHT22;20469;55.638;37.670;2022-08-19T09:26:29;27.70;33.00
34201;DHT22;20469;55.638;37.670;2022-08-19T09:29:18;27.70;34.50
34201;DHT22;20469;55.638;37.670;2022-08-19T09:31:49;27.00;34.80
34201;DHT22;20469;55.638;37.670;2022-08-19T09:34:17;26.80;34.40
34201;DHT22;20469;55.638;37.670;2022-08-19T09:36:50;27.10;33.20
34201;DHT22;20469;55.638;37.670;2022-08-19T09:39:21;26.90;31.60
34201;DHT22;20469;55.638;37.670;2022-08-19T09:41:48;27.10;28.50
34201;DHT22;20469;55.638;37.670;2022-08-19T09:44:17;27.30;26.80
34201;DHT22;20469;55.638;37.670;2022-08-19T09:46:45;27.00;20.60
34201;DHT22;20469;55.638;37.670;2022-08-19T09:49:15;27.30;19.80
34201;DHT22;20469;55.638;37.670;2022-08-19T09:51:44;27.50;20.00
34201;DHT22;20469;55.638;37.670;2022-08-19T09:54:17;27.10;20.10
34201;DHT22;20469;55.638;37.670;2022-08-19T09:59:18;27.70;18.90
34201;DHT22;20469;55.638;37.670;2022-08-19T10:01:45;27.50;19.40
34201;DHT22;20469;55.638;37.670;2022-08-19T10:04:13;27.80;19.20
34201;DHT22;20469;55.638;37.670;2022-08-19T10:06:46;27.70;19.30
34201;DHT22;20469;55.638;37.670;2022-08-19T10:09:19;28.90;19.00
34201;DHT22;20469;55.638;37.670;2022-08-19T10:12:01;27.40;16.60
34201;DHT22;20469;55.638;37.670;2022-08-19T10:14:29;28.00;15.90
34201;DHT22;20469;55.638;37.670;2022-08-19T10:16:57;28.00;13.30
34201;DHT22;20469;55.638;37.670;2022-08-19T10:19:25;28.80;11.40
34201;DHT22;20469;55.638;37.670;2022-08-19T10:21:53;28.90;10.60
34201;DHT22;20469;55.638;37.670;2022-08-19T10:24:26;28.50;10.50
34201;DHT22;20469;55.638;37.670;2022-08-19T10:26:55;28.60;11.20
34201;DHT22;20469;55.638;37.670;2022-08-19T10:29:26;29.20;8.80
34201;DHT22;20469;55.638;37.670;2022-08-19T10:32:03;29.30;7.60
34201;DHT22;20469;55.638;37.670;2022-08-19T10:34:36;29.00;7.30
34201;DHT22;20469;55.638;37.670;2022-08-19T10:37:16;29.10;6.10
34201;DHT22;20469;55.638;37.670;2022-08-19T10:39:57;30.60;5.20
34201;DHT22;20469;55.638;37.670;2022-08-19T10:42:24;30.60;4.20
34201;DHT22;20469;55.638;37.670;2022-08-19T10:44:51;29.60;3.60
34201;DHT22;20469;55.638;37.670;2022-08-19T10:47:19;30.00;4.80
34201;DHT22;20469;55.638;37.670;2022-08-19T10:49:53;28.70;3.90
34201;DHT22;20469;55.638;37.670;2022-08-19T10:52:46;28.90;3.20
34201;DHT22;20469;55.638;37.670;2022-08-19T10:55:22;29.10;3.10
34201;DHT22;20469;55.638;37.670;2022-08-19T10:58:15;29.30;2.20
34201;DHT22;20469;55.638;37.670;2022-08-19T11:00:43;29.30;2.00
34201;DHT22;20469;55.638;37.670;2022-08-19T11:03:17;31.00;1.00
34201;DHT22;20469;55.638;37.670;2022-08-19T11:05:45;31.20;1.00
34201;DHT22;20469;55.638;37.670;2022-08-19T11:08:12;29.40;2.10
34201;DHT22;20469;55.638;37.670;2022-08-19T11:10:52;29.40;2.30
34201;DHT22;20469;55.638;37.670;2022-08-19T11:13:24;28.90;2.90
34201;DHT22;20469;55.638;37.670;2022-08-19T11:15:59;27.60;4.40
34201;DHT22;20469;55.638;37.670;2022-08-19T11:18:37;27.90;5.30
34201;DHT22;20469;55.638;37.670;2022-08-19T11:21:21;28.30;5.40
34201;DHT22;20469;55.638;37.670;2022-08-19T11:23:51;28.50;4.20
34201;DHT22;20469;55.638;37.670;2022-08-19T11:26:20;28.50;4.30
34201;DHT22;20469;55.638;37.670;2022-08-19T11:28:48;28.90;4.20
34201;DHT22;20469;55.638;37.670;2022-08-19T11:31:20;28.20;5.30
34201;DHT22;20469;55.638;37.670;2022-08-19T11:33:57;28.00;6.30
34201;DHT22;20469;55.638;37.670;2022-08-19T11:36:25;28.30;6.90
34201;DHT22;20469;55.638;37.670;2022-08-19T11:38:53;28.40;7.10
34201;DHT22;20469;55.638;37.670;2022-08-19T11:41:22;28.50;4.30
34201;DHT22;20469;55.638;37.670;2022-08-19T11:43:53;28.10;5.80
34201;DHT22;20469;55.638;37.670;2022-08-19T11:46:23;28.10;6.00
34201;DHT22;20469;55.638;37.670;2022-08-19T11:48:51;28.50;6.30
34201;DHT22;20469;55.638;37.670;2022-08-19T11:51:22;29.10;4.50
34201;DHT22;20469;55.638;37.670;2022-08-19T11:53:49;28.60;4.70
34201;DHT22;20469;55.638;37.670;2022-08-19T11:56:18;29.00;4.90
34201;DHT22;20469;55.638;37.670;2022-08-19T11:58:46;28.80;5.00
34201;DHT22;20469;55.638;37.670;2022-08-19T12:01:16;28.00;7.00
34201;DHT22;20469;55.638;37.670;2022-08-19T12:03:45;28.50;6.70
34201;DHT22;20469;55.638;37.670;2022-08-19T12:06:17;28.90;6.80
34201;DHT22;20469;55.638;37.670;2022-08-19T12:08:45;27.70;9.90
34201;DHT22;20469;55.638;37.670;2022-08-19T12:11:14;28.50;10.10
34201;DHT22;20469;55.638;37.670;2022-08-19T12:13:42;28.80;9.70
34201;DHT22;20469;55.638;37.670;2022-08-19T12:16:39;29.10;9.00
34201;DHT22;20469;55.638;37.670;2022-08-19T12:19:18;28.60;9.20
34201;DHT22;20469;55.638;37.670;2022-08-19T12:21:49;28.40;10.40
34201;DHT22;20469;55.638;37.670;2022-08-19T12:24:17;28.70;10.10
34201;DHT22;20469;55.638;37.670;2022-08-19T12:26:50;29.40;10.20
34201;DHT22;20469;55.638;37.670;2022-08-19T12:29:20;30.20;9.40
34201;DHT22;20469;55.638;37.670;2022-08-19T12:31:50;29.40;8.80
34201;DHT22;20469;55.638;37.670;2022-08-19T12:34:18;28.00;12.10
34201;DHT22;20469;55.638;37.670;2022-08-19T12:36:47;27.40;13.50
34201;DHT22;20469;55.638;37.670;2022-08-19T12:39:16;28.40;12.40
34201;DHT22;20469;55.638;37.670;2022-08-19T12:41:43;28.80;11.80
34201;DHT22;20469;55.638;37.670;2022-08-19T12:44:21;28.50;12.40
34201;DHT22;20469;55.638;37.670;2022-08-19T12:46:56;28.10;12.60
34201;DHT22;20469;55.638;37.670;2022-08-19T12:49:23;28.50;12.40
34201;DHT22;20469;55.638;37.670;2022-08-19T12:52:12;28.60;11.80
34201;DHT22;20469;55.638;37.670;2022-08-19T12:54:49;31.20;9.70
34201;DHT22;20469;55.638;37.670;2022-08-19T12:57:24;31.10;7.00
34201;DHT22;20469;55.638;37.670;2022-08-19T13:00:03;29.10;9.90
34201;DHT22;20469;55.638;37.670;2022-08-19T13:02:33;29.10;10.40
34201;DHT22;20469;55.638;37.670;2022-08-19T13:05:07;28.70;11.30
34201;DHT22;20469;55.638;37.670;2022-08-19T13:07:36;28.00;12.50
34201;DHT22;20469;55.638;37.670;2022-08-19T13:10:09;26.80;15.20
34201;DHT22;20469;55.638;37.670;2022-08-19T13:12:37;28.10;14.50
34201;DHT22;20469;55.638;37.670;2022-08-19T13:15:05;28.00;12.80
34201;DHT22;20469;55.638;37.670;2022-08-19T13:17:37;26.60;15.00
34201;DHT22;20469;55.638;37.670;2022-08-19T13:20:07;26.20;17.30
34201;DHT22;20469;55.638;37.670;2022-08-19T13:22:35;26.10;18.60
34201;DHT22;20469;55.638;37.670;2022-08-19T13:25:06;26.00;18.30
34201;DHT22;20469;55.638;37.670;2022-08-19T13:27:34;26.20;19.20
34201;DHT22;20469;55.638;37.670;2022-08-19T13:30:03;26.40;18.70
34201;DHT22;20469;55.638;37.670;2022-08-19T13:32:49;26.40;19.10
34201;DHT22;20469;55.638;37.670;2022-08-19T13:35:35;26.10;19.80
34201;DHT22;20469;55.638;37.670;2022-08-19T13:38:02;26.30;20.00
34201;DHT22;20469;55.638;37.670;2022-08-19T13:40:38;26.00;20.80
34201;DHT22;20469;55.638;37.670;2022-08-19T13:43:08;25.70;20.90
34201;DHT22;20469;55.638;37.670;2022-08-19T13:45:53;25.60;21.70
34201;DHT22;20469;55.638;37.670;2022-08-19T13:48:25;25.70;21.50
34201;DHT22;20469;55.638;37.670;2022-08-19T13:50:54;25.70;22.00
34201;DHT22;20469;55.638;37.670;2022-08-19T13:53:21;25.80;21.30
34201;DHT22;20469;55.638;37.670;2022-08-19T13:55:49;25.50;21.70
34201;DHT22;20469;55.638;37.670;2022-08-19T13:58:18;25.40;22.30
34201;DHT22;20469;55.638;37.670;2022-08-19T14:00:46;25.50;22.80
34201;DHT22;20469;55.638;37.670;2022-08-19T14:03:14;25.50;22.70
34201;DHT22;20469;55.638;37.670;2022-08-19T14:05:42;25.60;22.70
34201;DHT22;20469;55.638;37.670;2022-08-19T14:10:37;25.50;22.80
34201;DHT22;20469;55.638;37.670;2022-08-19T14:13:04;25.50;23.70
34201;DHT22;20469;55.638;37.670;2022-08-19T14:15:31;25.30;24.10
34201;DHT22;20469;55.638;37.670;2022-08-19T14:17:59;25.30;25.10
34201;DHT22;20469;55.638;37.670;2022-08-19T14:20:27;25.20;25.10
34201;DHT22;20469;55.638;37.670;2022-08-19T14:22:55;25.20;24.60
34201;DHT22;20469;55.638;37.670;2022-08-19T14:25:25;25.10;24.40
34201;DHT22;20469;55.638;37.670;2022-08-19T14:27:54;25.10;24.90
34201;DHT22;20469;55.638;37.670;2022-08-19T14:30:25;25.10;24.80
34201;DHT22;20469;55.638;37.670;2022-08-19T14:32:55;24.90;24.70
34201;DHT22;20469;55.638;37.670;2022-08-19T14:35:23;24.90;24.80
34201;DHT22;20469;55.638;37.670;2022-08-19T14:37:51;24.90;25.30
34201;DHT22;20469;55.638;37.670;2022-08-19T14:40:25;24.80;24.70
34201;DHT22;20469;55.638;37.670;2022-08-19T14:43:03;24.80;25.30
34201;DHT22;20469;55.638;37.670;2022-08-19T14:45:36;24.70;25.40
34201;DHT22;20469;55.638;37.670;2022-08-19T14:48:05;24.70;25.80
34201;DHT22;20469;55.638;37.670;2022-08-19T14:50:34;24.70;26.20
34201;DHT22;20469;55.638;37.670;2022-08-19T14:53:05;24.80;26.00
34201;DHT22;20469;55.638;37.670;2022-08-19T14:55:41;24.80;26.10
34201;DHT22;20469;55.638;37.670;2022-08-19T14:58:09;24.80;26.20
34201;DHT22;20469;55.638;37.670;2022-08-19T15:03:21;24.80;25.80
34201;DHT22;20469;55.638;37.670;2022-08-19T15:05:49;24.90;26.60
34201;DHT22;20469;55.638;37.670;2022-08-19T15:08:16;24.70;25.40
34201;DHT22;20469;55.638;37.670;2022-08-19T15:10:43;24.70;25.80
34201;DHT22;20469;55.638;37.670;2022-08-19T15:13:10;24.70;26.20
34201;DHT22;20469;55.638;37.670;2022-08-19T15:15:37;24.60;26.50
34201;DHT22;20469;55.638;37.670;2022-08-19T15:18:05;24.60;26.40
34201;DHT22;20469;55.638;37.670;2022-08-19T15:20:32;24.60;27.00
34201;DHT22;20469;55.638;37.670;2022-08-19T15:23:00;24.60;27.50
34201;DHT22;20469;55.638;37.670;2022-08-19T15:25:27;24.60;27.50
34201;DHT22;20469;55.638;37.670;2022-08-19T15:27:54;24.60;27.20
34201;DHT22;20469;55.638;37.670;2022-08-19T15:30:25;24.60;27.30
34201;DHT22;20469;55.638;37.670;2022-08-19T15:32:55;24.60;27.70
34201;DHT22;20469;55.638;37.670;2022-08-19T15:35:23;24.60;27.90
34201;DHT22;20469;55.638;37.670;2022-08-19T15:37:52;24.60;27.90
34201;DHT22;20469;55.638;37.670;2022-08-19T15:40:21;24.60;28.10
34201;DHT22;20469;55.638;37.670;2022-08-19T15:42:48;24.60;29.10
34201;DHT22;20469;55.638;37.670;2022-08-19T15:45:18;24.60;28.00
34201;DHT22;20469;55.638;37.670;2022-08-19T15:47:46;24.60;28.90
34201;DHT22;20469;55.638;37.670;2022-08-19T15:50:17;24.60;28.70
34201;DHT22;20469;55.638;37.670;2022-08-19T15:52:47;24.50;29.40
34201;DHT22;20469;55.638;37.670;2022-08-19T15:55:18;24.50;29.30
34201;DHT22;20469;55.638;37.670;2022-08-19T15:58:04;24.50;28.80
34201;DHT22;20469;55.638;37.670;2022-08-19T16:01:00;24.50;28.90
34201;DHT22;20469;55.638;37.670;2022-08-19T16:03:51;24.50;29.40
34201;DHT22;20469;55.638;37.670;2022-08-19T16:09:15;24.40;29.80
34201;DHT22;20469;55.638;37.670;2022-08-19T16:11:44;24.40;28.50